Time;durP1;ratioP1;P1;durP2;ratioP2;P2;SDS_P1;SDS_P2;PMS_P1;PMS_P2;Temp;Humidity;BMP_temperature;BMP_pressure;BME280_temperature;BME280_humidity;BME280_pressure;Samples;Min_cycle;Max_cycle;Signal;HPM_P1;HPM_P2
2022/04/25 00:01:07;;;;;;;0.00;0.00;;;11.90;99.90;;;;;;5119317;28;20039;-72
2022/04/25 00:03:33;;;;;;;0.00;0.00;;;11.80;99.90;;;;;;5119443;28;20035;-74
2022/04/25 00:05:58;;;;;;;0.00;0.00;;;11.80;99.90;;;;;;5118137;28;20020;-73
2022/04/25 00:08:24;;;;;;;0.00;0.00;;;11.70;99.90;;;;;;5117566;28;20072;-74
2022/04/25 00:10:50;;;;;;;0.00;0.00;;;11.70;99.90;;;;;;5118942;28;20012;-73
2022/04/25 00:13:16;;;;;;;0.00;0.00;;;11.70;99.90;;;;;;5118280;28;20071;-73
2022/04/25 00:15:42;;;;;;;0.00;0.00;;;11.60;99.90;;;;;;5119123;28;20016;-74
2022/04/25 00:18:26;;;;;;;0.00;0.00;;;11.60;99.90;;;;;;5119182;28;20192;-73
2022/04/25 00:20:52;;;;;;;0.00;0.00;;;11.60;99.90;;;;;;5117708;28;20024;-76
2022/04/25 00:23:18;;;;;;;0.00;0.00;;;11.60;99.90;;;;;;5119740;28;20047;-74
2022/04/25 00:25:44;;;;;;;0.00;0.00;;;11.50;99.90;;;;;;5117890;28;20274;-73
2022/04/25 00:28:10;;;;;;;0.00;0.00;;;11.50;99.90;;;;;;5117512;28;20292;-74
2022/04/25 00:30:35;;;;;;;0.00;0.00;;;11.50;99.90;;;;;;5118153;28;20076;-73
2022/04/25 00:33:02;;;;;;;0.00;0.00;;;11.50;99.90;;;;;;5119053;28;20276;-73
2022/04/25 00:35:28;;;;;;;0.00;0.00;;;11.50;99.90;;;;;;5118203;28;20023;-73
2022/04/25 00:37:54;;;;;;;0.00;0.00;;;11.50;99.90;;;;;;5118416;28;20015;-73
2022/04/25 00:40:22;;;;;;;0.00;0.00;;;11.50;99.90;;;;;;5119410;28;20034;-73
2022/04/25 00:42:49;;;;;;;0.00;0.00;;;11.50;99.90;;;;;;5118017;28;20098;-73
2022/04/25 00:45:16;;;;;;;0.00;0.00;;;11.50;99.90;;;;;;5119281;28;20043;-73
2022/04/25 00:47:42;;;;;;;0.00;0.00;;;11.40;99.90;;;;;;5118046;28;20215;-73
2022/04/25 00:50:09;;;;;;;0.00;0.00;;;11.50;99.90;;;;;;5121629;27;20023;-72
2022/04/25 00:52:36;;;;;;;0.00;0.00;;;11.40;99.90;;;;;;5139361;28;20027;-73
2022/04/25 00:55:04;;;;;;;0.00;0.00;;;11.40;99.90;;;;;;5120883;28;20290;-73
2022/04/25 00:57:31;;;;;;;0.00;0.00;;;11.40;99.90;;;;;;5121211;28;20026;-73
2022/04/25 00:59:58;;;;;;;0.00;0.00;;;11.40;99.90;;;;;;5120813;28;20051;-72
2022/04/25 01:02:26;;;;;;;0.00;0.00;;;11.50;99.90;;;;;;5121086;28;20015;-72
2022/04/25 01:04:53;;;;;;;0.00;0.00;;;11.50;99.90;;;;;;5120747;28;20030;-73
2022/04/25 01:07:19;;;;;;;0.00;0.00;;;11.50;99.90;;;;;;5121259;28;20015;-73
2022/04/25 01:09:45;;;;;;;0.00;0.00;;;11.50;99.90;;;;;;5119854;28;20180;-73
2022/04/25 01:12:11;;;;;;;0.00;0.00;;;11.60;99.90;;;;;;5138656;28;20019;-73
2022/04/25 01:14:36;;;;;;;0.00;0.00;;;11.50;99.90;;;;;;5120680;28;20087;-72
2022/04/25 01:17:03;;;;;;;0.00;0.00;;;11.60;99.90;;;;;;5120571;28;20094;-75
2022/04/25 01:19:29;;;;;;;0.00;0.00;;;11.60;99.90;;;;;;5122744;27;20019;-74
2022/04/25 01:21:58;;;;;;;0.00;0.00;;;11.70;99.90;;;;;;5124308;27;20176;-73
2022/04/25 01:27:16;;;;;;;0.00;0.00;;;11.70;99.90;;;;;;5142614;27;20341;-73
2022/04/25 01:29:51;;;;;;;0.00;0.00;;;11.80;99.90;;;;;;5142851;27;20248;-76
2022/04/25 01:32:18;;;;;;;0.00;0.00;;;11.80;99.90;;;;;;5143068;27;20090;-73
2022/04/25 01:34:44;;;;;;;0.00;0.00;;;11.80;99.90;;;;;;5124392;27;20290;-74
2022/04/25 01:37:12;;;;;;;0.00;0.00;;;11.90;99.90;;;;;;5124243;27;20242;-72
2022/04/25 01:39:39;;;;;;;0.00;0.00;;;11.90;99.90;;;;;;5142684;27;20022;-72
2022/04/25 01:42:06;;;;;;;0.00;0.00;;;11.90;99.90;;;;;;5123686;27;20071;-74
2022/04/25 01:44:33;;;;;;;0.00;0.00;;;11.90;99.90;;;;;;5124088;27;20015;-74
2022/04/25 01:46:58;;;;;;;0.00;0.00;;;11.90;99.90;;;;;;5123990;27;20026;-72
2022/04/25 01:49:24;;;;;;;0.00;0.00;;;11.90;99.90;;;;;;5142425;27;20257;-72
2022/04/25 01:51:51;;;;;;;0.00;0.00;;;11.90;99.90;;;;;;5124275;27;20066;-71
2022/04/25 01:54:22;;;;;;;0.00;0.00;;;11.90;99.90;;;;;;5142643;27;20244;-74
2022/04/25 01:56:48;;;;;;;0.00;0.00;;;11.90;99.90;;;;;;5125571;27;20088;-79
2022/04/25 01:59:13;;;;;;;0.00;0.00;;;11.90;99.90;;;;;;5143090;27;20023;-76
2022/04/25 02:01:39;;;;;;;0.00;0.00;;;11.90;99.90;;;;;;5125456;27;20019;-77
2022/04/25 02:04:05;;;;;;;0.00;0.00;;;11.90;99.90;;;;;;5142570;27;20027;-75
2022/04/25 02:06:30;;;;;;;0.00;0.00;;;11.90;99.90;;;;;;5125321;27;20022;-79
2022/04/25 02:08:56;;;;;;;0.00;0.00;;;11.90;99.90;;;;;;5142571;27;20054;-76
2022/04/25 02:11:22;;;;;;;0.00;0.00;;;11.90;99.90;;;;;;5125052;27;20253;-76
2022/04/25 02:13:54;;;;;;;0.00;0.00;;;11.90;99.90;;;;;;5124681;27;20023;-76
2022/04/25 02:16:21;;;;;;;0.00;0.00;;;11.90;99.90;;;;;;5124646;27;20102;-74
2022/04/25 02:18:48;;;;;;;0.00;0.00;;;11.90;99.90;;;;;;5124921;27;20087;-77
2022/04/25 02:21:14;;;;;;;0.00;0.00;;;11.90;99.90;;;;;;5143236;27;20019;-75
2022/04/25 02:23:41;;;;;;;0.00;0.00;;;11.90;99.90;;;;;;5143052;27;20033;-76
2022/04/25 02:26:07;;;;;;;0.00;0.00;;;11.90;99.90;;;;;;5123998;27;20019;-75
2022/04/25 02:28:34;;;;;;;0.00;0.00;;;11.90;99.90;;;;;;5142470;27;20027;-76
2022/04/25 02:31:00;;;;;;;0.00;0.00;;;11.90;99.90;;;;;;5141385;27;20042;-75
2022/04/25 02:33:27;;;;;;;0.00;0.00;;;11.80;99.90;;;;;;5142319;27;20348;-75
2022/04/25 02:35:54;;;;;;;0.00;0.00;;;11.90;99.90;;;;;;5123015;27;20019;-75
2022/04/25 02:38:20;;;;;;;0.00;0.00;;;11.90;99.90;;;;;;5142808;27;20027;-75
2022/04/25 02:40:45;;;;;;;0.00;0.00;;;11.90;99.90;;;;;;5123910;27;20075;-76
2022/04/25 02:43:11;;;;;;;0.00;0.00;;;11.90;99.90;;;;;;5142242;27;20258;-76
2022/04/25 02:45:37;;;;;;;0.00;0.00;;;11.90;99.90;;;;;;5142443;27;20011;-74
2022/04/25 02:48:03;;;;;;;0.00;0.00;;;11.90;99.90;;;;;;5141980;27;20015;-75
2022/04/25 02:50:29;;;;;;;0.00;0.00;;;11.90;99.90;;;;;;5142250;27;20084;-75
2022/04/25 02:52:55;;;;;;;0.00;0.00;;;11.90;99.90;;;;;;5141839;27;20027;-76
2022/04/25 02:55:21;;;;;;;0.00;0.00;;;11.90;99.90;;;;;;5142779;27;20023;-76
2022/04/25 02:57:46;;;;;;;0.00;0.00;;;11.90;99.90;;;;;;5141032;27;20179;-76
2022/04/25 03:00:13;;;;;;;0.00;0.00;;;12.00;99.90;;;;;;5140761;27;20050;-81
2022/04/25 03:02:39;;;;;;;0.00;0.00;;;12.00;99.90;;;;;;5142156;27;20274;-76
2022/04/25 03:05:06;;;;;;;0.00;0.00;;;12.00;99.90;;;;;;5123560;27;20106;-76
2022/04/25 03:07:32;;;;;;;0.00;0.00;;;12.00;99.90;;;;;;5142624;27;20016;-80
2022/04/25 03:09:58;;;;;;;0.00;0.00;;;12.00;99.90;;;;;;5123598;27;20179;-74
2022/04/25 03:12:23;;;;;;;0.00;0.00;;;11.90;99.90;;;;;;5124000;27;20021;-77
2022/04/25 03:14:49;;;;;;;0.00;0.00;;;11.90;99.90;;;;;;5142366;27;20224;-76
2022/04/25 03:17:15;;;;;;;0.00;0.00;;;11.90;99.90;;;;;;5141763;27;20060;-76
2022/04/25 03:19:41;;;;;;;0.00;0.00;;;11.90;99.90;;;;;;5141835;27;20171;-76
2022/04/25 03:22:07;;;;;;;0.00;0.00;;;11.90;99.90;;;;;;5123116;27;20019;-77
2022/04/25 03:24:51;;;;;;;0.00;0.00;;;11.80;99.90;;;;;;5142212;27;20294;-76
2022/04/25 03:27:18;;;;;;;0.00;0.00;;;11.80;99.90;;;;;;5141694;27;20042;-76
2022/04/25 03:29:44;;;;;;;0.00;0.00;;;11.80;99.90;;;;;;5141510;27;20202;-75
2022/04/25 03:32:10;;;;;;;0.00;0.00;;;11.80;99.90;;;;;;5140866;27;20022;-74
2022/04/25 03:34:37;;;;;;;0.00;0.00;;;11.80;99.90;;;;;;5141242;27;20027;-75
2022/04/25 03:37:03;;;;;;;0.00;0.00;;;11.70;99.90;;;;;;5122383;27;20090;-74
2022/04/25 03:39:29;;;;;;;0.00;0.00;;;11.70;99.90;;;;;;5141435;27;20349;-74
2022/04/25 03:41:55;;;;;;;0.00;0.00;;;11.70;99.90;;;;;;5140772;27;20064;-74
2022/04/25 03:44:21;;;;;;;0.00;0.00;;;11.70;99.90;;;;;;5141317;27;20255;-74
2022/04/25 03:46:47;;;;;;;0.00;0.00;;;11.70;99.90;;;;;;5141343;27;20015;-75
2022/04/25 03:49:13;;;;;;;0.00;0.00;;;11.70;99.90;;;;;;5122437;27;20345;-75
2022/04/25 03:51:39;;;;;;;0.00;0.00;;;11.70;99.90;;;;;;5141232;27;20047;-72
2022/04/25 03:54:05;;;;;;;0.00;0.00;;;11.70;99.90;;;;;;5140731;27;20031;-74
2022/04/25 03:59:15;;;;;;;0.00;0.00;;;11.70;99.90;;;;;;5140890;27;20095;-74
2022/04/25 04:01:41;;;;;;;0.00;0.00;;;11.70;99.90;;;;;;5141791;27;20226;-73
2022/04/25 04:04:07;;;;;;;0.00;0.00;;;11.60;99.90;;;;;;5123636;27;20023;-78
2022/04/25 04:06:33;;;;;;;0.00;0.00;;;11.70;99.90;;;;;;5142062;27;20023;-75
2022/04/25 04:08:59;;;;;;;0.00;0.00;;;11.70;99.90;;;;;;5123185;27;20034;-75
2022/04/25 04:11:46;;;;;;;0.00;0.00;;;11.70;99.90;;;;;;5141622;27;20348;-73
2022/04/25 04:14:10;;;;;;;0.00;0.00;;;11.70;99.90;;;;;;5140967;27;20035;-75
2022/04/25 04:16:36;;;;;;;0.00;0.00;;;11.60;99.90;;;;;;5142235;27;20151;-74
2022/04/25 04:19:02;;;;;;;0.00;0.00;;;11.60;99.90;;;;;;5140852;27;20321;-80
2022/04/25 04:21:28;;;;;;;0.00;0.00;;;11.60;99.90;;;;;;5141985;27;20042;-73
2022/04/25 04:23:53;;;;;;;0.00;0.00;;;11.70;99.90;;;;;;5141223;27;20034;-77
2022/04/25 04:26:19;;;;;;;0.00;0.00;;;11.70;99.90;;;;;;5142141;27;20018;-76
2022/04/25 04:28:44;;;;;;;0.00;0.00;;;11.70;99.90;;;;;;5141985;27;20076;-75
2022/04/25 04:31:10;;;;;;;0.00;0.00;;;11.70;99.90;;;;;;5141095;28;20357;-76
2022/04/25 04:33:36;;;;;;;0.00;0.00;;;11.70;99.90;;;;;;5122729;28;20086;-76
2022/04/25 04:36:22;;;;;;;0.00;0.00;;;11.70;99.90;;;;;;5140557;28;20286;-75
2022/04/25 04:38:48;;;;;;;0.00;0.00;;;11.70;99.90;;;;;;5121999;28;20023;-77
2022/04/25 04:41:13;;;;;;;0.00;0.00;;;11.80;99.90;;;;;;5140684;28;20023;-76
2022/04/25 04:43:39;;;;;;;0.00;0.00;;;11.80;99.90;;;;;;5140631;28;20201;-76
2022/04/25 04:46:05;;;;;;;0.00;0.00;;;11.80;99.90;;;;;;5121871;28;20306;-76
2022/04/25 04:48:30;;;;;;;0.00;0.00;;;11.80;99.90;;;;;;5141053;28;20050;-76
2022/04/25 04:50:58;;;;;;;0.00;0.00;;;11.80;99.90;;;;;;5140084;28;20051;-75
2022/04/25 04:53:24;;;;;;;0.00;0.00;;;11.80;99.90;;;;;;5122382;27;20185;-76
2022/04/25 04:55:51;;;;;;;0.00;0.00;;;11.80;99.90;;;;;;5126608;27;20023;-75
2022/04/25 04:58:18;;;;;;;0.00;0.00;;;11.90;99.90;;;;;;5124784;27;20015;-75
2022/04/25 05:00:44;;;;;;;0.00;0.00;;;11.90;99.90;;;;;;5144018;27;20346;-75
2022/04/25 05:03:13;;;;;;;0.00;0.00;;;11.90;99.90;;;;;;5125664;27;20220;-76
2022/04/25 05:05:40;;;;;;;0.00;0.00;;;11.90;99.90;;;;;;5145026;27;20023;-79
2022/04/25 05:08:05;;;;;;;0.00;0.00;;;12.00;99.90;;;;;;5125192;27;20124;-77
2022/04/25 05:10:31;;;;;;;0.00;0.00;;;12.00;99.90;;;;;;5145040;27;20015;-76
2022/04/25 05:12:57;;;;;;;0.00;0.00;;;12.10;99.90;;;;;;5144620;27;20078;-77
2022/04/25 05:15:24;;;;;;;0.00;0.00;;;12.10;99.90;;;;;;5126078;27;20030;-76
2022/04/25 05:17:52;;;;;;;0.10;0.10;;;12.10;99.90;;;;;;5126160;27;20019;-76
2022/04/25 05:20:21;;;;;;;0.00;0.00;;;12.10;99.90;;;;;;5144674;27;20030;-77
2022/04/25 05:22:48;;;;;;;;;;;12.10;99.90;;;;;;5126670;27;20019;-75
2022/04/25 05:25:33;;;;;;;0.00;0.00;;;12.20;99.90;;;;;;5125366;27;20059;-76
2022/04/25 05:27:59;;;;;;;0.00;0.00;;;12.20;99.90;;;;;;5144668;27;20011;-76
2022/04/25 05:30:25;;;;;;;0.00;0.00;;;12.20;99.90;;;;;;5125852;27;20025;-74
2022/04/25 05:32:57;;;;;;;0.00;0.00;;;12.10;99.90;;;;;;5125760;27;20023;-75
2022/04/25 05:35:27;;;;;;;0.00;0.00;;;12.10;99.90;;;;;;5144441;27;20117;-75
2022/04/25 05:37:54;;;;;;;0.00;0.00;;;12.20;99.90;;;;;;5125883;27;20022;-75
2022/04/25 05:40:20;;;;;;;0.00;0.00;;;12.20;99.90;;;;;;5143419;27;20018;-75
2022/04/25 05:42:47;;;;;;;0.00;0.00;;;12.20;99.90;;;;;;5125427;27;20382;-73
2022/04/25 05:45:16;;;;;;;0.00;0.00;;;12.30;99.90;;;;;;5124882;27;20015;-73
2022/04/25 05:47:43;;;;;;;0.00;0.00;;;12.30;99.90;;;;;;5125191;27;20019;-74
2022/04/25 05:52:55;;;;;;;0.00;0.00;;;12.40;99.90;;;;;;5143367;27;20075;-74
2022/04/25 05:55:22;;;;;;;0.00;0.00;;;12.50;99.90;;;;;;5125045;27;20019;-74
2022/04/25 05:57:47;;;;;;;0.00;0.00;;;12.50;99.90;;;;;;5143854;27;20035;-76
2022/04/25 06:00:14;;;;;;;0.00;0.00;;;12.60;99.90;;;;;;5108064;27;20029;-74
2022/04/25 06:02:41;;;;;;;0.00;0.00;;;12.60;99.90;;;;;;5125081;27;20240;-73
2022/04/25 06:05:12;;;;;;;0.00;0.00;;;12.60;99.90;;;;;;5141748;27;20052;-73
2022/04/25 06:07:42;;;;;;;0.00;0.00;;;12.60;99.90;;;;;;5124806;27;20015;-73
2022/04/25 06:10:08;;;;;;;0.00;0.00;;;12.60;99.90;;;;;;5107278;27;20030;-74
2022/04/25 06:12:39;;;;;;;0.00;0.00;;;12.60;99.90;;;;;;5124425;27;20314;-73
2022/04/25 06:15:06;;;;;;;0.00;0.00;;;12.70;99.90;;;;;;5124180;27;20105;-73
2022/04/25 06:17:32;;;;;;;0.00;0.00;;;12.80;99.90;;;;;;5142898;27;20061;-78
2022/04/25 06:19:58;;;;;;;0.00;0.00;;;12.80;99.90;;;;;;5124554;27;20218;-74
2022/04/25 06:22:23;;;;;;;0.00;0.00;;;12.70;99.90;;;;;;5125231;27;20015;-78
2022/04/25 06:24:49;;;;;;;0.00;0.00;;;12.80;99.90;;;;;;5124658;27;20026;-74
2022/04/25 06:27:15;;;;;;;0.00;0.00;;;12.80;99.90;;;;;;5124535;27;20049;-76
2022/04/25 06:29:44;;;;;;;0.00;0.00;;;12.90;99.90;;;;;;5124721;27;20019;-73
2022/04/25 06:32:10;;;;;;;0.00;0.00;;;12.90;99.90;;;;;;5142207;27;20015;-74
2022/04/25 06:34:36;;;;;;;0.00;0.00;;;12.90;99.90;;;;;;5142144;27;20030;-73
2022/04/25 06:37:02;;;;;;;0.00;0.00;;;12.90;99.90;;;;;;5141669;27;20040;-80
2022/04/25 06:39:28;;;;;;;0.00;0.00;;;12.90;99.90;;;;;;5142582;27;20306;-74
2022/04/25 06:41:54;;;;;;;0.00;0.00;;;12.90;99.90;;;;;;5142283;27;20075;-73
2022/04/25 06:44:20;;;;;;;0.00;0.00;;;12.80;99.90;;;;;;5142526;27;20027;-74
2022/04/25 06:46:46;;;;;;;0.00;0.00;;;12.80;99.90;;;;;;5124234;27;20060;-76
2022/04/25 06:49:20;;;;;;;0.00;0.00;;;12.80;99.90;;;;;;5141945;27;20200;-74
2022/04/25 06:51:53;;;;;;;0.00;0.00;;;12.80;99.90;;;;;;5124004;27;20049;-77
2022/04/25 06:54:20;;;;;;;0.00;0.00;;;12.80;99.90;;;;;;5124001;27;20030;-78
2022/04/25 06:56:47;;;;;;;0.20;0.20;;;12.90;99.90;;;;;;5123666;27;20026;-75
2022/04/25 06:59:12;;;;;;;0.00;0.00;;;12.90;99.90;;;;;;5123704;27;20092;-76
2022/04/25 07:01:39;;;;;;;0.00;0.00;;;12.90;99.90;;;;;;5124079;27;20015;-73
2022/04/25 07:04:06;;;;;;;0.00;0.00;;;13.00;99.90;;;;;;5141681;27;20336;-73
2022/04/25 07:06:33;;;;;;;0.00;0.00;;;13.20;99.90;;;;;;5140248;27;20043;-76
2022/04/25 07:08:59;;;;;;;0.00;0.00;;;13.20;99.90;;;;;;5122962;27;20015;-76
2022/04/25 07:11:24;;;;;;;0.00;0.00;;;13.30;99.90;;;;;;5123637;27;20125;-73
2022/04/25 07:13:51;;;;;;;0.00;0.00;;;13.30;99.90;;;;;;5123443;27;20175;-74
2022/04/25 07:16:16;;;;;;;0.00;0.00;;;13.40;99.90;;;;;;5141476;27;20302;-74
2022/04/25 07:18:43;;;;;;;0.00;0.00;;;13.40;99.90;;;;;;5141777;27;20034;-80
2022/04/25 07:29:24;;;;;;;0.00;0.00;;;14.00;99.90;;;;;;5141293;27;20026;-76
2022/04/25 07:31:52;;;;;;;0.00;0.00;;;14.20;99.90;;;;;;5123189;27;20060;-71
2022/04/25 07:34:21;;;;;;;0.00;0.00;;;14.10;99.90;;;;;;5122799;27;20030;-76
2022/04/25 07:36:55;;;;;;;0.30;0.20;;;14.10;99.90;;;;;;5141946;27;20294;-72
2022/04/25 07:39:21;;;;;;;0.00;0.00;;;14.00;99.90;;;;;;5122183;27;20015;-68
2022/04/25 07:41:49;;;;;;;0.00;0.00;;;14.00;99.90;;;;;;5122200;27;20328;-70
2022/04/25 07:44:15;;;;;;;0.00;0.00;;;13.80;99.90;;;;;;5139977;27;20023;-72
2022/04/25 07:46:41;;;;;;;0.00;0.00;;;13.80;99.90;;;;;;5122817;27;20042;-68
2022/04/25 07:49:09;;;;;;;0.00;0.00;;;13.80;99.90;;;;;;5138711;27;20076;-69
2022/04/25 07:51:40;;;;;;;1.50;0.97;;;13.80;99.90;;;;;;5121855;27;20092;-68
2022/04/25 07:54:08;;;;;;;0.00;0.00;;;13.80;99.90;;;;;;5139844;27;20030;-69
2022/04/25 07:56:38;;;;;;;0.00;0.00;;;13.90;99.90;;;;;;5121870;27;20043;-70
2022/04/25 07:59:05;;;;;;;0.00;0.00;;;13.90;99.90;;;;;;5139742;27;20087;-69
2022/04/25 08:01:32;;;;;;;0.00;0.00;;;13.90;99.90;;;;;;5138393;27;20063;-69
2022/04/25 08:03:58;;;;;;;0.00;0.00;;;13.50;99.90;;;;;;5120188;27;20098;-71
2022/04/25 08:06:24;;;;;;;0.00;0.00;;;14.00;99.90;;;;;;5139961;27;20124;-68
2022/04/25 08:08:54;;;;;;;0.00;0.00;;;14.20;99.90;;;;;;5139846;27;20026;-69
2022/04/25 08:11:21;;;;;;;1.13;0.00;;;14.20;99.90;;;;;;5139919;27;20121;-69
2022/04/25 08:19:17;;;;;;;0.00;0.00;;;14.00;99.90;;;;;;5139536;27;20089;-70
2022/04/25 08:21:44;;;;;;;0.00;0.00;;;13.90;99.90;;;;;;5121766;27;20042;-69
2022/04/25 08:24:11;;;;;;;0.15;0.15;;;14.00;99.90;;;;;;5121107;27;20019;-69
2022/04/25 08:26:38;;;;;;;0.00;0.00;;;14.00;99.90;;;;;;5120894;27;20073;-70
2022/04/25 08:29:05;;;;;;;0.00;0.00;;;14.00;99.90;;;;;;5120252;27;20020;-71
2022/04/25 08:31:32;;;;;;;0.00;0.00;;;14.30;99.90;;;;;;5140077;28;20078;-71
2022/04/25 08:33:58;;;;;;;0.00;0.00;;;14.50;99.90;;;;;;5120913;28;20090;-69
2022/04/25 08:36:24;;;;;;;0.00;0.00;;;14.70;99.90;;;;;;5121220;28;20086;-70
2022/04/25 08:38:51;;;;;;;0.00;0.00;;;14.80;99.90;;;;;;5140446;28;20011;-70
2022/04/25 08:41:21;;;;;;;0.10;0.08;;;14.90;99.90;;;;;;5121269;28;20205;-71
2022/04/25 08:43:52;;;;;;;0.00;0.00;;;14.90;99.90;;;;;;5121712;28;20102;-72
2022/04/25 08:46:21;;;;;;;0.10;0.00;;;14.80;99.90;;;;;;5104457;28;20019;-70
2022/04/25 08:48:51;;;;;;;0.05;0.00;;;14.80;99.90;;;;;;5121523;28;20088;-69
2022/04/25 08:51:20;;;;;;;0.10;0.00;;;14.90;99.90;;;;;;5139386;28;20073;-73
2022/04/25 08:53:46;;;;;;;0.00;0.00;;;15.00;99.90;;;;;;5121575;28;20306;-69
2022/04/25 08:56:15;;;;;;;0.00;0.00;;;15.10;99.90;;;;;;5121212;28;20019;-70
2022/04/25 08:58:42;;;;;;;0.00;0.00;;;15.20;99.90;;;;;;5121905;28;20042;-67
2022/04/25 09:01:10;;;;;;;0.05;0.00;;;15.30;99.90;;;;;;5139614;28;20107;-70
2022/04/25 09:03:36;;;;;;;0.00;0.00;;;15.30;99.90;;;;;;5121585;28;20019;-69
2022/04/25 09:06:03;;;;;;;0.00;0.00;;;15.40;99.90;;;;;;5120642;28;20261;-73
2022/04/25 09:08:29;;;;;;;0.00;0.00;;;15.30;99.90;;;;;;5121456;28;20022;-68
2022/04/25 09:12:09;;;;;;;0.00;0.00;;;15.60;99.90;;;;;;5120644;28;20015;-70
2022/04/25 09:13:47;;;;;;;0.00;0.00;;;16.20;99.70;;;;;;5139134;28;20151;-68
2022/04/25 09:16:14;;;;;;;0.00;0.00;;;16.30;98.80;;;;;;5121181;28;20021;-69
2022/04/25 09:18:40;;;;;;;0.00;0.00;;;16.30;98.70;;;;;;5139273;28;20019;-68
2022/04/25 09:21:06;;;;;;;0.00;0.00;;;16.90;98.40;;;;;;5120596;28;20094;-68
2022/04/25 09:23:32;;;;;;;0.00;0.00;;;17.50;97.30;;;;;;5139436;28;20290;-71
2022/04/25 09:26:19;;;;;;;0.13;0.10;;;18.00;96.70;;;;;;5139164;28;20039;-67
2022/04/25 09:28:54;;;;;;;0.00;0.00;;;18.40;95.10;;;;;;5120984;28;20022;-66
2022/04/25 09:31:22;;;;;;;0.00;0.00;;;18.30;95.60;;;;;;5121230;28;20020;-69
2022/04/25 09:33:47;;;;;;;;;;;18.70;95.40;;;;;;5139815;28;20027;-73
2022/04/25 09:36:15;;;;;;;0.00;0.00;;;19.10;93.80;;;;;;5121009;28;20093;-69
2022/04/25 09:38:42;;;;;;;0.00;0.00;;;18.50;93.30;;;;;;5139574;28;20019;-68
2022/04/25 09:41:11;;;;;;;0.00;0.00;;;19.10;93.50;;;;;;5141793;27;20023;-68
2022/04/25 09:43:38;;;;;;;0.00;0.00;;;19.50;92.60;;;;;;5124741;27;20097;-68
2022/04/25 09:46:15;;;;;;;0.00;0.00;;;20.30;91.90;;;;;;5142481;27;20054;-72
2022/04/25 09:48:59;;;;;;;0.00;0.00;;;20.70;88.50;;;;;;5124641;27;20046;-73
2022/04/25 09:51:25;;;;;;;0.10;0.00;;;21.40;87.00;;;;;;5142615;27;20314;-72
2022/04/25 09:53:53;;;;;;;0.00;0.00;;;21.80;84.50;;;;;;5123967;27;20091;-69
2022/04/25 09:56:27;;;;;;;0.10;0.00;;;21.60;83.20;;;;;;5143015;27;20015;-68
2022/04/25 09:59:05;;;;;;;0.00;0.00;;;21.70;81.30;;;;;;5141919;27;20027;-68
2022/04/25 10:01:35;;;;;;;0.00;0.00;;;22.40;80.40;;;;;;5142359;27;20188;-68
2022/04/25 10:04:02;;;;;;;0.00;0.00;;;22.50;79.60;;;;;;5141989;27;20147;-68
2022/04/25 10:06:46;;;;;;;0.00;0.00;;;22.50;76.90;;;;;;5142451;27;20019;-68
2022/04/25 10:09:12;;;;;;;0.00;0.00;;;22.70;76.30;;;;;;5123446;27;20228;-68
2022/04/25 10:11:42;;;;;;;0.00;0.00;;;22.90;74.50;;;;;;5123957;27;20042;-68
2022/04/25 10:14:08;;;;;;;0.00;0.00;;;22.30;75.20;;;;;;5141795;27;20054;-67
2022/04/25 10:16:34;;;;;;;0.00;0.00;;;22.10;74.00;;;;;;5142336;27;20026;-68
2022/04/25 10:19:00;;;;;;;0.00;0.00;;;21.70;74.40;;;;;;5123458;27;20050;-69
2022/04/25 10:21:29;;;;;;;0.00;0.00;;;21.20;74.50;;;;;;5123639;27;20022;-69
2022/04/25 10:23:57;;;;;;;0.00;0.00;;;20.20;77.50;;;;;;5141469;27;20090;-68
2022/04/25 10:26:27;;;;;;;0.10;0.00;;;19.40;80.30;;;;;;5142306;27;20011;-68
2022/04/25 10:28:57;;;;;;;2.13;0.03;;;19.00;81.70;;;;;;5141749;27;20019;-67
2022/04/25 10:31:30;;;;;;;0.00;0.00;;;19.00;82.70;;;;;;5123457;27;20046;-68
2022/04/25 10:33:58;;;;;;;0.00;0.00;;;19.70;80.70;;;;;;5141488;27;20031;-71
2022/04/25 10:36:39;;;;;;;1.25;0.25;;;20.10;78.40;;;;;;5141786;27;20038;-70
2022/04/25 10:39:14;;;;;;;0.00;0.00;;;20.30;79.10;;;;;;5139264;27;20019;-67
2022/04/25 10:44:44;;;;;;;0.55;0.20;;;20.30;75.90;;;;;;5140488;27;20067;-67
2022/04/25 10:47:25;;;;;;;0.00;0.00;;;20.20;76.80;;;;;;5122410;27;20361;-68
2022/04/25 10:49:54;;;;;;;0.00;0.00;;;20.20;77.10;;;;;;5139845;27;20017;-69
2022/04/25 10:52:42;;;;;;;0.00;0.00;;;20.70;77.80;;;;;;5140786;27;20094;-68
2022/04/25 10:55:20;;;;;;;0.00;0.00;;;21.20;75.00;;;;;;5140907;27;20048;-68
2022/04/25 10:58:07;;;;;;;0.00;0.00;;;21.00;74.20;;;;;;5116000;27;20313;-74
2022/04/25 11:03:09;;;;;;;0.15;0.00;;;20.80;71.80;;;;;;5128829;27;20050;-72
2022/04/25 11:05:38;;;;;;;0.05;0.00;;;20.90;73.30;;;;;;5129977;27;20034;-73
2022/04/25 11:08:19;;;;;;;0.00;0.00;;;21.00;72.60;;;;;;5115323;27;20033;-69
2022/04/25 11:10:48;;;;;;;0.00;0.00;;;21.00;75.50;;;;;;5129871;27;20011;-71
2022/04/25 11:13:18;;;;;;;0.00;0.00;;;21.80;73.70;;;;;;5128371;27;20027;-73
2022/04/25 11:15:52;;;;;;;0.05;0.00;;;22.40;69.40;;;;;;5129480;27;20019;-72
2022/04/25 11:18:21;;;;;;;0.45;0.10;;;22.40;67.90;;;;;;5129515;27;20023;-70
2022/04/25 11:21:08;;;;;;;0.00;0.00;;;22.70;68.70;;;;;;5129997;27;20015;-71
2022/04/25 11:23:55;;;;;;;0.15;0.10;;;22.90;67.40;;;;;;5111216;27;20023;-71
2022/04/25 11:26:23;;;;;;;0.08;0.00;;;23.40;66.30;;;;;;5129172;27;20095;-74
2022/04/25 11:29:11;;;;;;;0.00;0.00;;;23.10;63.60;;;;;;5129557;27;20026;-71
2022/04/25 11:31:38;;;;;;;0.08;0.00;;;22.90;64.20;;;;;;5111141;27;20278;-73
2022/04/25 11:34:11;;;;;;;0.03;0.00;;;22.60;61.60;;;;;;5110226;27;20370;-71
2022/04/25 11:36:44;;;;;;;0.20;0.10;;;22.30;63.70;;;;;;5128884;27;20023;-74
2022/04/25 11:41:59;;;;;;;0.00;0.00;;;21.50;65.10;;;;;;5127379;27;20038;-71
2022/04/25 11:44:25;;;;;;;1.85;0.20;;;20.90;69.20;;;;;;5110026;27;20373;-71
2022/04/25 11:46:53;;;;;;;0.40;0.10;;;21.00;81.80;;;;;;5128568;27;20325;-69
2022/04/25 11:49:32;;;;;;;0.17;0.17;;;20.70;68.40;;;;;;5129116;27;20094;-70
2022/04/25 11:51:58;;;;;;;0.00;0.00;;;21.00;69.20;;;;;;5127585;27;20059;-74
2022/04/25 11:54:26;;;;;;;0.00;0.00;;;21.20;69.00;;;;;;5108272;27;20039;-71
2022/04/25 11:56:51;;;;;;;0.00;0.00;;;21.50;67.90;;;;;;5127745;27;20234;-74
2022/04/25 11:59:19;;;;;;;0.90;0.00;;;21.40;68.00;;;;;;5127437;27;20019;-73
2022/04/25 12:01:47;;;;;;;0.15;0.08;;;21.30;66.70;;;;;;5126998;27;20026;-73
2022/04/25 12:04:42;;;;;;;0.00;0.00;;;20.80;66.80;;;;;;5108253;27;20053;-70
2022/04/25 12:07:09;;;;;;;0.00;0.00;;;20.50;68.20;;;;;;5108486;27;20348;-75
2022/04/25 12:15:36;;;;;;;0.83;0.83;;;20.10;70.00;;;;;;5127848;27;20034;-72
2022/04/25 12:18:21;;;;;;;0.05;0.00;;;19.60;70.40;;;;;;5108644;27;20271;-72
2022/04/25 12:20:58;;;;;;;0.30;0.30;;;19.20;70.30;;;;;;5127799;27;20053;-73
2022/04/25 12:23:27;;;;;;;0.00;0.00;;;19.00;71.20;;;;;;5128241;27;20019;-69
2022/04/25 12:25:54;;;;;;;0.00;0.00;;;18.90;76.20;;;;;;5127929;27;20091;-74
2022/04/25 12:28:24;;;;;;;0.00;0.00;;;19.00;81.10;;;;;;5127274;27;20364;-70
2022/04/25 12:31:07;;;;;;;0.00;0.00;;;18.70;79.70;;;;;;5127712;27;20110;-75
2022/04/25 12:33:34;;;;;;;0.32;0.10;;;18.60;82.60;;;;;;5127584;28;20019;-74
2022/04/25 12:36:18;;;;;;;0.00;0.00;;;18.50;83.20;;;;;;5127127;28;20019;-74
2022/04/25 12:38:55;;;;;;;0.00;0.00;;;18.30;84.80;;;;;;5127331;28;20027;-74
2022/04/25 12:41:35;;;;;;;0.00;0.00;;;18.30;80.30;;;;;;5126943;28;20027;-73
2022/04/25 12:44:22;;;;;;;0.00;0.00;;;18.20;83.40;;;;;;5108722;28;20215;-74
2022/04/25 12:46:50;;;;;;;0.00;0.00;;;18.00;80.30;;;;;;5129677;28;20353;-70
2022/04/25 12:49:17;;;;;;;;;;;17.80;80.30;;;;;;5110453;28;20019;-73
2022/04/25 12:51:56;;;;;;;0.40;0.25;;;17.80;81.40;;;;;;5106519;28;20190;-71
2022/04/25 12:54:37;;;;;;;0.00;0.00;;;17.70;81.40;;;;;;5108469;28;20100;-74
2022/04/25 12:57:13;;;;;;;0.30;0.22;;;17.50;81.60;;;;;;5107303;28;20015;-75
2022/04/25 12:59:40;;;;;;;0.05;0.00;;;17.30;82.10;;;;;;5108950;28;20053;-71
2022/04/25 13:02:12;;;;;;;0.00;0.00;;;17.30;83.70;;;;;;5105793;28;20020;-71
2022/04/25 13:05:00;;;;;;;0.00;0.00;;;17.20;81.60;;;;;;5108750;28;20020;-74
2022/04/25 13:07:29;;;;;;;0.00;0.00;;;17.10;82.70;;;;;;5106836;28;20109;-70
2022/04/25 13:09:57;;;;;;;;;;;17.00;80.80;;;;;;5106945;28;20027;-70
2022/04/25 13:12:34;;;;;;;0.80;0.15;;;16.90;79.00;;;;;;5107017;28;19903;-70
2022/04/25 13:15:02;;;;;;;0.00;0.00;;;16.80;79.00;;;;;;5108806;28;20031;-72
2022/04/25 13:17:28;;;;;;;0.00;0.00;;;16.70;80.10;;;;;;5112257;28;20020;-72
2022/04/25 13:19:53;;;;;;;0.00;0.00;;;16.80;79.50;;;;;;5111519;28;20106;-69
2022/04/25 13:22:20;;;;;;;0.00;0.00;;;17.00;79.40;;;;;;5112279;28;20030;-73
2022/04/25 13:24:46;;;;;;;0.00;0.00;;;17.00;79.60;;;;;;5110846;28;20208;-73
2022/04/25 13:27:13;;;;;;;0.00;0.00;;;17.20;78.30;;;;;;5109473;28;20024;-71
2022/04/25 13:29:39;;;;;;;0.00;0.00;;;17.30;78.60;;;;;;5112555;28;20099;-72
2022/04/25 13:32:05;;;;;;;0.00;0.00;;;17.30;77.60;;;;;;5110848;28;20053;-74